Time;durP1;ratioP1;P1;durP2;ratioP2;P2;SDS_P1;SDS_P2;PMS_P1;PMS_P2;Temp;Humidity;BMP_temperature;BMP_pressure;BME280_temperature;BME280_humidity;BME280_pressure;Samples;Min_cycle;Max_cycle;Signal;HPM_P1;HPM_P2
2021/05/31 00:02:13;;;;;;;26.60;24.67;;;;;;;;;;5016089;28;20437;-87
2021/05/31 00:04:40;;;;;;;28.10;25.87;;;;;;;;;;5015836;28;20430;-87
2021/05/31 00:07:10;;;;;;;27.70;25.80;;;;;;;;;;4998624;28;20464;-88
2021/05/31 00:09:38;;;;;;;28.60;25.87;;;;;;;;;;5015811;28;20437;-84
2021/05/31 00:12:06;;;;;;;27.60;25.70;;;;;;;;;;5015832;28;20499;-87
2021/05/31 00:14:34;;;;;;;29.07;26.60;;;;;;;;;;4998429;28;20506;-88
2021/05/31 00:17:01;;;;;;;26.73;24.87;;;;;;;;;;5015781;28;20901;-88
2021/05/31 00:19:28;;;;;;;27.83;25.93;;;;;;;;;;5015560;28;20942;-87
2021/05/31 00:21:56;;;;;;;27.83;25.40;;;;;;;;;;5015756;28;20441;-87
2021/05/31 00:24:23;;;;;;;26.43;24.43;;;;;;;;;;5015262;28;20452;-88
2021/05/31 00:26:50;;;;;;;28.87;26.30;;;;;;;;;;5015696;28;20496;-87
2021/05/31 00:29:18;;;;;;;27.80;25.87;;;;;;;;;;4998741;28;20444;-87
2021/05/31 00:31:46;;;;;;;27.40;25.30;;;;;;;;;;5015780;28;20433;-87
2021/05/31 00:34:13;;;;;;;28.53;26.20;;;;;;;;;;5015166;28;20423;-88
2021/05/31 00:36:40;;;;;;;28.67;26.37;;;;;;;;;;4997901;28;20427;-88
2021/05/31 00:39:06;;;;;;;28.93;26.30;;;;;;;;;;5015182;28;20445;-87
2021/05/31 00:41:33;;;;;;;28.90;26.50;;;;;;;;;;4997939;28;20448;-87
2021/05/31 00:44:00;;;;;;;28.03;25.73;;;;;;;;;;5015092;28;20411;-88
2021/05/31 00:46:27;;;;;;;28.57;26.30;;;;;;;;;;5015348;28;20484;-87
2021/05/31 00:48:55;;;;;;;28.40;25.93;;;;;;;;;;5015125;28;20958;-87
2021/05/31 00:51:22;;;;;;;29.60;27.20;;;;;;;;;;5015238;28;20472;-88
2021/05/31 00:53:49;;;;;;;29.23;26.33;;;;;;;;;;5014923;28;20422;-88
2021/05/31 00:56:16;;;;;;;28.50;26.30;;;;;;;;;;5015155;28;20498;-87
2021/05/31 00:58:44;;;;;;;28.80;26.40;;;;;;;;;;5015151;28;20415;-87
2021/05/31 01:01:11;;;;;;;28.63;26.43;;;;;;;;;;5015149;28;20503;-88
2021/05/31 01:03:38;;;;;;;29.63;26.73;;;;;;;;;;5014868;28;20422;-88
2021/05/31 01:06:07;;;;;;;29.73;26.97;;;;;;;;;;5014649;28;20459;-87
2021/05/31 01:08:39;;;;;;;29.13;26.63;;;;;;;;;;4997896;28;20503;-88
2021/05/31 01:11:08;;;;;;;28.77;26.43;;;;;;;;;;4997584;28;20800;-87
2021/05/31 01:13:39;;;;;;;28.10;25.90;;;;;;;;;;5014578;28;20422;-88
2021/05/31 01:16:09;;;;;;;28.60;26.13;;;;;;;;;;4997382;28;20419;-88
2021/05/31 01:18:38;;;;;;;29.60;27.20;;;;;;;;;;5014883;28;20449;-88
2021/05/31 01:21:16;;;;;;;27.83;25.63;;;;;;;;;;5014791;28;20934;-87
2021/05/31 01:23:46;;;;;;;28.83;26.50;;;;;;;;;;5014827;28;20403;-88
2021/05/31 01:26:15;;;;;;;30.17;27.87;;;;;;;;;;5014924;28;20435;-89
2021/05/31 01:28:57;;;;;;;29.53;26.93;;;;;;;;;;5014574;28;20462;-88
2021/05/31 01:31:26;;;;;;;28.27;26.10;;;;;;;;;;4997311;28;20434;-88
2021/05/31 01:33:55;;;;;;;31.07;28.30;;;;;;;;;;4996458;28;20466;-88
2021/05/31 01:36:23;;;;;;;29.40;27.10;;;;;;;;;;5014230;28;20455;-88
2021/05/31 01:38:50;;;;;;;29.33;27.13;;;;;;;;;;5014272;28;20949;-89
2021/05/31 01:41:18;;;;;;;31.10;28.43;;;;;;;;;;5014348;28;20444;-88
2021/05/31 01:43:46;;;;;;;30.07;27.47;;;;;;;;;;4997173;28;20446;-89
2021/05/31 01:46:14;;;;;;;28.73;26.00;;;;;;;;;;4997261;28;20489;-88
2021/05/31 01:48:42;;;;;;;28.07;25.50;;;;;;;;;;5014248;28;20459;-88
2021/05/31 01:51:09;;;;;;;29.80;27.30;;;;;;;;;;5014485;28;20447;-89
2021/05/31 01:53:36;;;;;;;30.10;27.57;;;;;;;;;;5015814;28;20955;-88
2021/05/31 01:56:04;;;;;;;30.50;27.87;;;;;;;;;;5014414;28;20423;-88
2021/05/31 01:58:31;;;;;;;29.23;26.93;;;;;;;;;;5014344;28;20425;-88
2021/05/31 02:00:58;;;;;;;29.83;27.43;;;;;;;;;;5014793;28;20410;-88
2021/05/31 02:03:27;;;;;;;31.77;28.73;;;;;;;;;;4997286;28;20418;-88
2021/05/31 02:05:54;;;;;;;31.00;28.47;;;;;;;;;;5014017;28;20448;-88
2021/05/31 02:08:21;;;;;;;29.07;26.70;;;;;;;;;;5014291;28;20554;-89
2021/05/31 02:10:48;;;;;;;30.13;27.60;;;;;;;;;;5014073;28;20441;-88
2021/05/31 02:13:16;;;;;;;30.90;27.90;;;;;;;;;;5015209;28;20441;-88
2021/05/31 02:15:46;;;;;;;29.97;27.47;;;;;;;;;;5014316;28;20408;-88
2021/05/31 02:18:15;;;;;;;31.10;28.40;;;;;;;;;;5014318;28;20436;-88
2021/05/31 02:20:45;;;;;;;30.07;27.10;;;;;;;;;;4996806;28;20427;-88
2021/05/31 02:23:12;;;;;;;31.43;28.77;;;;;;;;;;4996847;28;20958;-88
2021/05/31 02:25:39;;;;;;;31.77;28.93;;;;;;;;;;5014140;28;20415;-89
2021/05/31 02:28:07;;;;;;;30.00;27.20;;;;;;;;;;5013896;28;20491;-88
2021/05/31 02:30:34;;;;;;;31.83;28.97;;;;;;;;;;5013767;28;20450;-89
2021/05/31 02:33:01;;;;;;;29.53;27.03;;;;;;;;;;5013919;28;20916;-88
2021/05/31 02:35:30;;;;;;;32.10;29.20;;;;;;;;;;5014213;28;20415;-89
2021/05/31 02:37:59;;;;;;;31.50;28.77;;;;;;;;;;5014036;28;20470;-88
2021/05/31 02:40:26;;;;;;;31.80;28.90;;;;;;;;;;5014083;28;20437;-87
2021/05/31 02:42:54;;;;;;;31.30;28.67;;;;;;;;;;4996679;28;20457;-89
2021/05/31 02:45:22;;;;;;;31.23;28.23;;;;;;;;;;4998140;28;20445;-88
2021/05/31 02:47:49;;;;;;;32.00;29.10;;;;;;;;;;5017620;28;20469;-88
2021/05/31 02:50:17;;;;;;;31.67;28.93;;;;;;;;;;5016986;28;20467;-88
2021/05/31 02:52:44;;;;;;;29.90;27.60;;;;;;;;;;5000341;28;20452;-88
2021/05/31 02:55:14;;;;;;;31.00;28.20;;;;;;;;;;5017258;28;20527;-88
2021/05/31 02:57:41;;;;;;;32.27;29.23;;;;;;;;;;5017504;28;20451;-89
2021/05/31 03:00:18;;;;;;;31.80;29.13;;;;;;;;;;5017340;28;20801;-89
2021/05/31 03:02:45;;;;;;;33.80;30.40;;;;;;;;;;5017246;28;20453;-88
2021/05/31 03:05:13;;;;;;;32.37;29.20;;;;;;;;;;5017255;28;20763;-88
2021/05/31 03:07:40;;;;;;;31.93;29.07;;;;;;;;;;5016892;28;20471;-88
2021/05/31 03:10:08;;;;;;;30.93;28.23;;;;;;;;;;5017188;28;20485;-89
2021/05/31 03:12:37;;;;;;;31.60;28.73;;;;;;;;;;5016776;28;20474;-88
2021/05/31 03:15:05;;;;;;;32.73;29.80;;;;;;;;;;5017049;28;20460;-89
2021/05/31 03:17:32;;;;;;;31.90;28.97;;;;;;;;;;5016936;28;20770;-81
2021/05/31 03:19:58;;;;;;;32.60;29.70;;;;;;;;;;5016216;28;20415;-82
2021/05/31 03:22:25;;;;;;;32.07;29.13;;;;;;;;;;5016553;28;20449;-82
2021/05/31 03:24:52;;;;;;;30.83;27.73;;;;;;;;;;5016079;28;20437;-82
2021/05/31 03:27:19;;;;;;;32.83;29.77;;;;;;;;;;5016311;28;20542;-82
2021/05/31 03:29:47;;;;;;;32.17;29.03;;;;;;;;;;5015914;28;20411;-82
2021/05/31 03:32:14;;;;;;;32.50;29.30;;;;;;;;;;5015874;28;20444;-82
2021/05/31 03:34:41;;;;;;;32.90;30.00;;;;;;;;;;4998630;28;20456;-82
2021/05/31 03:37:08;;;;;;;31.33;28.43;;;;;;;;;;5016214;28;20440;-82
2021/05/31 03:39:35;;;;;;;31.90;29.30;;;;;;;;;;5015765;28;20492;-82
2021/05/31 03:42:02;;;;;;;32.67;29.87;;;;;;;;;;5015995;28;20796;-82
2021/05/31 03:44:29;;;;;;;33.87;30.13;;;;;;;;;;5015745;28;20441;-82
2021/05/31 03:46:57;;;;;;;33.47;30.20;;;;;;;;;;5015905;28;20480;-81
2021/05/31 03:49:25;;;;;;;30.83;28.23;;;;;;;;;;5015429;28;20459;-82
2021/05/31 03:51:52;;;;;;;30.43;27.50;;;;;;;;;;4998464;28;20469;-81
2021/05/31 03:54:19;;;;;;;29.63;27.43;;;;;;;;;;5015521;28;20419;-82
2021/05/31 03:56:45;;;;;;;30.33;27.33;;;;;;;;;;5015637;28;20414;-82
2021/05/31 03:59:12;;;;;;;30.90;28.30;;;;;;;;;;5015009;28;20935;-82
2021/05/31 04:01:39;;;;;;;30.90;28.40;;;;;;;;;;4998149;28;20419;-82
2021/05/31 04:04:08;;;;;;;30.73;27.50;;;;;;;;;;5015574;28;20837;-82
2021/05/31 04:06:55;;;;;;;28.87;26.57;;;;;;;;;;5015530;28;20859;-82
2021/05/31 04:12:16;;;;;;;30.50;27.60;;;;;;;;;;4955100;29;20457;-82
2021/05/31 04:14:42;;;;;;;28.63;26.10;;;;;;;;;;4954887;28;20417;-82
2021/05/31 04:17:10;;;;;;;31.00;28.30;;;;;;;;;;4954623;29;21044;-81
2021/05/31 04:19:38;;;;;;;33.90;30.53;;;;;;;;;;4954880;29;20501;-81
2021/05/31 04:22:05;;;;;;;31.07;28.57;;;;;;;;;;4954988;29;20451;-83
2021/05/31 04:24:32;;;;;;;32.30;29.10;;;;;;;;;;4954780;29;20410;-82
2021/05/31 04:26:59;;;;;;;31.90;29.23;;;;;;;;;;4954713;29;20548;-82
2021/05/31 04:29:26;;;;;;;32.43;29.53;;;;;;;;;;4954703;29;20438;-82
2021/05/31 04:31:53;;;;;;;31.20;28.63;;;;;;;;;;4954284;29;20467;-81
2021/05/31 04:34:20;;;;;;;32.00;29.20;;;;;;;;;;4954526;29;20912;-82
2021/05/31 04:36:48;;;;;;;33.17;30.20;;;;;;;;;;4954548;29;20455;-82
2021/05/31 04:39:15;;;;;;;33.13;29.73;;;;;;;;;;4954669;29;20429;-82
2021/05/31 04:41:42;;;;;;;33.70;30.60;;;;;;;;;;4938801;29;20465;-82
2021/05/31 04:44:10;;;;;;;31.93;29.20;;;;;;;;;;4954459;29;20448;-81
2021/05/31 04:46:37;;;;;;;35.43;31.90;;;;;;;;;;4954322;29;21034;-82
2021/05/31 04:49:04;;;;;;;36.83;33.53;;;;;;;;;;5012140;28;20929;-81
2021/05/31 04:51:31;;;;;;;35.80;32.50;;;;;;;;;;5014760;28;20828;-82
2021/05/31 04:54:00;;;;;;;38.00;34.50;;;;;;;;;;5014846;28;20430;-82
2021/05/31 04:56:27;;;;;;;38.10;34.50;;;;;;;;;;5014717;28;20420;-82
2021/05/31 04:58:54;;;;;;;39.50;35.80;;;;;;;;;;5014481;28;20441;-82
2021/05/31 05:01:21;;;;;;;38.87;34.93;;;;;;;;;;5014512;28;20855;-82
2021/05/31 05:03:48;;;;;;;38.77;35.17;;;;;;;;;;5014432;28;20438;-82
2021/05/31 05:06:15;;;;;;;36.23;32.30;;;;;;;;;;5014464;28;20422;-82
2021/05/31 05:08:42;;;;;;;36.63;33.17;;;;;;;;;;5014568;28;20420;-82
2021/05/31 05:11:10;;;;;;;38.00;34.20;;;;;;;;;;5014361;28;20427;-82
2021/05/31 05:13:37;;;;;;;36.60;33.27;;;;;;;;;;5014396;28;20424;-82
2021/05/31 05:16:05;;;;;;;37.80;34.03;;;;;;;;;;5014093;28;20925;-83
2021/05/31 05:18:32;;;;;;;35.93;32.27;;;;;;;;;;4996784;28;20467;-82
2021/05/31 05:20:59;;;;;;;35.37;32.20;;;;;;;;;;5013938;28;20756;-82
2021/05/31 05:23:26;;;;;;;36.83;33.20;;;;;;;;;;5014181;28;21160;-82
2021/05/31 05:25:53;;;;;;;39.67;35.67;;;;;;;;;;5014232;28;20552;-82
2021/05/31 05:28:21;;;;;;;37.43;34.13;;;;;;;;;;5013897;28;20487;-81
2021/05/31 05:30:50;;;;;;;35.80;32.47;;;;;;;;;;5013946;28;20795;-82
2021/05/31 05:33:17;;;;;;;36.63;33.27;;;;;;;;;;5013857;28;20510;-82
2021/05/31 05:35:48;;;;;;;37.73;34.17;;;;;;;;;;4996946;28;20448;-81
2021/05/31 05:38:37;;;;;;;35.83;32.43;;;;;;;;;;5013985;28;20431;-81
2021/05/31 05:41:16;;;;;;;36.87;32.93;;;;;;;;;;5014053;28;20540;-82
2021/05/31 05:43:52;;;;;;;35.77;32.17;;;;;;;;;;5014102;28;20462;-82
2021/05/31 05:46:36;;;;;;;35.53;32.03;;;;;;;;;;5014031;28;20426;-82
2021/05/31 05:49:04;;;;;;;33.97;31.07;;;;;;;;;;5013543;28;20983;-82
2021/05/31 05:51:31;;;;;;;37.50;34.10;;;;;;;;;;5014015;28;20842;-81
2021/05/31 05:53:59;;;;;;;35.10;31.70;;;;;;;;;;5013826;28;20420;-82
2021/05/31 05:56:26;;;;;;;35.13;31.93;;;;;;;;;;4996418;28;20448;-81
2021/05/31 05:58:56;;;;;;;37.30;33.80;;;;;;;;;;5013620;28;20436;-81
2021/05/31 06:01:23;;;;;;;34.93;31.90;;;;;;;;;;5013370;28;20903;-81
2021/05/31 06:03:52;;;;;;;35.40;32.20;;;;;;;;;;5013423;28;20440;-81
2021/05/31 06:06:19;;;;;;;33.67;31.00;;;;;;;;;;5013719;28;20437;-82
2021/05/31 06:08:46;;;;;;;34.90;31.70;;;;;;;;;;4996034;28;20434;-82
2021/05/31 06:11:13;;;;;;;33.30;30.40;;;;;;;;;;4995980;28;20909;-82
2021/05/31 06:13:42;;;;;;;36.70;33.47;;;;;;;;;;5013466;28;20479;-82
2021/05/31 06:16:11;;;;;;;33.40;30.57;;;;;;;;;;5013729;28;20447;-82
2021/05/31 06:18:38;;;;;;;34.87;31.73;;;;;;;;;;5013452;28;20408;-82
2021/05/31 06:21:06;;;;;;;32.47;29.63;;;;;;;;;;5012758;28;20436;-83
2021/05/31 06:23:33;;;;;;;33.60;30.70;;;;;;;;;;5017384;28;20445;-83
2021/05/31 06:26:00;;;;;;;35.53;32.40;;;;;;;;;;5017126;28;20407;-82
2021/05/31 06:28:27;;;;;;;35.00;31.90;;;;;;;;;;5017050;28;20491;-81
2021/05/31 06:30:54;;;;;;;33.57;30.67;;;;;;;;;;4998996;28;20463;-94
2021/05/31 06:33:22;;;;;;;36.13;32.63;;;;;;;;;;5017755;28;20443;-96
2021/05/31 06:35:51;;;;;;;33.93;31.13;;;;;;;;;;5018561;28;20424;-94
2021/05/31 06:38:18;;;;;;;36.60;33.10;;;;;;;;;;5018203;28;20419;-90
2021/05/31 06:40:45;;;;;;;35.97;32.73;;;;;;;;;;5000552;28;20418;-92
2021/05/31 06:43:11;;;;;;;34.43;31.63;;;;;;;;;;5017437;28;20413;-94
2021/05/31 06:45:39;;;;;;;36.23;33.00;;;;;;;;;;5017793;28;20469;-95
2021/05/31 06:48:07;;;;;;;33.77;31.00;;;;;;;;;;5017384;28;20482;-92
2021/05/31 06:50:35;;;;;;;35.63;32.23;;;;;;;;;;5017558;28;20875;-95
2021/05/31 06:53:03;;;;;;;33.97;31.00;;;;;;;;;;5017415;28;20492;-80
2021/05/31 06:55:30;;;;;;;33.90;31.00;;;;;;;;;;5016990;28;20498;-81
2021/05/31 06:57:58;;;;;;;33.37;30.67;;;;;;;;;;5016598;28;20437;-81
2021/05/31 07:00:25;;;;;;;32.37;29.63;;;;;;;;;;5016355;28;20923;-80
2021/05/31 07:02:52;;;;;;;34.20;31.30;;;;;;;;;;5016162;28;20429;-82
2021/05/31 07:05:19;;;;;;;35.00;31.83;;;;;;;;;;5016621;28;20484;-79
2021/05/31 07:07:48;;;;;;;35.33;32.23;;;;;;;;;;5016969;28;20465;-82
2021/05/31 07:10:21;;;;;;;35.70;32.40;;;;;;;;;;5016310;28;20442;-81
2021/05/31 07:12:48;;;;;;;33.80;30.60;;;;;;;;;;5015858;28;20428;-81
2021/05/31 07:15:18;;;;;;;34.53;31.60;;;;;;;;;;5016361;28;20452;-82
2021/05/31 07:17:45;;;;;;;34.77;32.07;;;;;;;;;;5016350;28;20875;-82
2021/05/31 07:20:13;;;;;;;34.10;31.30;;;;;;;;;;5016548;28;20422;-81
2021/05/31 07:22:40;;;;;;;33.60;30.60;;;;;;;;;;5016129;28;20411;-82
2021/05/31 07:25:09;;;;;;;34.93;32.20;;;;;;;;;;5016361;28;20497;-81
2021/05/31 07:27:36;;;;;;;34.90;32.00;;;;;;;;;;5015785;28;20493;-81
2021/05/31 07:30:04;;;;;;;32.60;30.10;;;;;;;;;;5016055;28;20434;-81
2021/05/31 07:32:31;;;;;;;33.80;31.03;;;;;;;;;;4997072;28;20439;-80
2021/05/31 07:34:58;;;;;;;34.90;32.20;;;;;;;;;;4998988;28;20474;-80
2021/05/31 07:37:25;;;;;;;32.10;29.60;;;;;;;;;;5016186;28;20404;-80
2021/05/31 07:39:52;;;;;;;30.97;28.57;;;;;;;;;;5015734;28;20409;-81
2021/05/31 07:42:20;;;;;;;30.43;28.00;;;;;;;;;;5015797;28;20425;-81
2021/05/31 07:44:47;;;;;;;29.47;27.20;;;;;;;;;;4998359;28;20967;-81
2021/05/31 07:47:14;;;;;;;28.83;26.63;;;;;;;;;;5015965;28;20484;-82
2021/05/31 07:49:41;;;;;;;28.70;26.60;;;;;;;;;;5016131;28;20459;-93
2021/05/31 07:52:19;;;;;;;28.80;26.70;;;;;;;;;;5016550;28;20478;-91
2021/05/31 07:54:46;;;;;;;29.23;26.90;;;;;;;;;;5016188;28;20426;-92
2021/05/31 07:57:13;;;;;;;27.60;25.50;;;;;;;;;;4999439;28;20425;-90
2021/05/31 07:59:41;;;;;;;28.37;26.27;;;;;;;;;;5017531;28;20434;-94
2021/05/31 08:02:09;;;;;;;27.47;25.53;;;;;;;;;;5017014;28;20450;-91
2021/05/31 08:04:36;;;;;;;25.63;24.03;;;;;;;;;;5016159;28;20450;-90
2021/05/31 08:07:03;;;;;;;27.60;25.73;;;;;;;;;;5016196;28;20479;-91
2021/05/31 08:09:30;;;;;;;27.87;25.97;;;;;;;;;;5015942;28;20420;-93
2021/05/31 08:11:57;;;;;;;26.90;24.90;;;;;;;;;;5015873;28;20453;-93
2021/05/31 08:14:23;;;;;;;27.20;25.30;;;;;;;;;;5016017;28;20445;-88
2021/05/31 08:16:52;;;;;;;25.93;24.33;;;;;;;;;;5016071;28;20817;-90
2021/05/31 08:19:20;;;;;;;26.27;24.50;;;;;;;;;;5015788;28;20428;-85
2021/05/31 08:21:47;;;;;;;26.00;24.20;;;;;;;;;;5015660;28;20412;-84
2021/05/31 08:24:14;;;;;;;29.53;27.27;;;;;;;;;;5015686;28;20449;-91
2021/05/31 08:26:41;;;;;;;28.87;26.67;;;;;;;;;;5015454;28;20516;-91
2021/05/31 08:29:09;;;;;;;28.33;26.43;;;;;;;;;;5015524;28;20436;-84
2021/05/31 08:31:36;;;;;;;27.80;25.70;;;;;;;;;;5014139;28;20452;-85
2021/05/31 08:34:04;;;;;;;26.87;24.37;;;;;;;;;;4997880;28;20899;-84
2021/05/31 08:36:32;;;;;;;28.00;26.10;;;;;;;;;;4998046;28;20417;-84
2021/05/31 08:38:59;;;;;;;26.87;24.60;;;;;;;;;;5015359;28;20489;-84
2021/05/31 08:41:26;;;;;;;27.67;25.70;;;;;;;;;;5016016;28;20434;-84
2021/05/31 08:43:53;;;;;;;27.57;25.57;;;;;;;;;;5015044;28;20500;-90
2021/05/31 08:46:20;;;;;;;28.93;26.87;;;;;;;;;;5015162;28;20474;-85
2021/05/31 08:48:47;;;;;;;28.73;26.60;;;;;;;;;;5014838;28;20513;-84
2021/05/31 08:51:17;;;;;;;23.53;22.03;;;;;;;;;;5015219;28;20474;-85
2021/05/31 08:53:44;;;;;;;27.83;25.83;;;;;;;;;;5015040;28;20444;-84
2021/05/31 08:56:11;;;;;;;27.20;25.40;;;;;;;;;;4997453;28;20428;-85
2021/05/31 08:58:38;;;;;;;26.63;24.93;;;;;;;;;;4997640;28;20454;-84
2021/05/31 09:01:05;;;;;;;26.47;24.67;;;;;;;;;;5015010;28;20751;-85
2021/05/31 09:03:33;;;;;;;28.20;26.00;;;;;;;;;;5014935;28;20430;-84
2021/05/31 09:06:00;;;;;;;29.70;27.60;;;;;;;;;;5014640;28;20415;-84
2021/05/31 09:08:28;;;;;;;30.37;27.60;;;;;;;;;;5014426;28;21030;-86
2021/05/31 09:10:57;;;;;;;28.37;26.17;;;;;;;;;;5014948;28;20426;-87
2021/05/31 09:13:28;;;;;;;28.10;26.10;;;;;;;;;;5014326;28;20443;-86
2021/05/31 09:16:05;;;;;;;29.33;26.67;;;;;;;;;;5014891;28;20422;-85
2021/05/31 09:18:32;;;;;;;28.63;26.53;;;;;;;;;;5014998;28;20471;-85
2021/05/31 09:20:59;;;;;;;26.80;24.90;;;;;;;;;;5014872;28;20419;-85
2021/05/31 09:23:37;;;;;;;24.93;23.33;;;;;;;;;;5014292;28;20459;-85
2021/05/31 09:26:04;;;;;;;25.77;23.83;;;;;;;;;;5014861;28;20417;-86
2021/05/31 09:28:31;;;;;;;28.70;26.77;;;;;;;;;;4997268;28;21054;-85
2021/05/31 09:30:58;;;;;;;28.07;26.07;;;;;;;;;;5014279;28;20425;-85
2021/05/31 09:33:25;;;;;;;27.57;25.57;;;;;;;;;;5015091;28;20490;-85
2021/05/31 09:35:52;;;;;;;26.50;24.67;;;;;;;;;;5014593;28;20449;-86
2021/05/31 09:38:20;;;;;;;26.57;24.87;;;;;;;;;;5014350;28;20416;-85
2021/05/31 09:40:52;;;;;;;27.93;26.03;;;;;;;;;;5013742;28;20427;-84
2021/05/31 09:43:20;;;;;;;25.37;23.67;;;;;;;;;;5014101;28;20452;-89
2021/05/31 09:45:48;;;;;;;25.73;24.20;;;;;;;;;;5014549;28;20416;-91
2021/05/31 09:48:15;;;;;;;26.07;24.17;;;;;;;;;;5014184;28;20455;-91
2021/05/31 09:50:43;;;;;;;26.87;24.77;;;;;;;;;;5014419;28;20446;-90
2021/05/31 09:53:11;;;;;;;27.53;25.60;;;;;;;;;;5014365;28;20459;-90
2021/05/31 09:55:39;;;;;;;28.03;26.03;;;;;;;;;;5014869;28;20453;-90
2021/05/31 09:58:11;;;;;;;28.40;26.00;;;;;;;;;;5018362;28;20510;-91
2021/05/31 10:00:39;;;;;;;27.03;25.10;;;;;;;;;;5000779;28;20436;-90
2021/05/31 10:03:27;;;;;;;25.87;24.30;;;;;;;;;;5018769;28;20499;-90
2021/05/31 10:06:03;;;;;;;26.83;25.00;;;;;;;;;;5001039;28;20934;-90
2021/05/31 10:08:43;;;;;;;27.00;25.20;;;;;;;;;;5017819;28;20473;-93
2021/05/31 10:11:10;;;;;;;26.00;24.30;;;;;;;;;;5018035;28;20790;-92
2021/05/31 10:13:43;;;;;;;26.50;24.80;;;;;;;;;;5018367;28;20451;-92
2021/05/31 10:16:11;;;;;;;27.13;25.33;;;;;;;;;;5018240;28;20801;-87
2021/05/31 10:18:41;;;;;;;26.60;24.80;;;;;;;;;;5018298;28;20458;-89
2021/05/31 10:21:08;;;;;;;26.50;24.80;;;;;;;;;;5017889;28;20887;-90
2021/05/31 10:23:35;;;;;;;27.53;25.60;;;;;;;;;;5018049;28;20906;-90
2021/05/31 10:26:04;;;;;;;27.00;25.03;;;;;;;;;;5018095;28;20411;-90
2021/05/31 10:28:32;;;;;;;25.50;23.70;;;;;;;;;;5017507;28;20619;-90
2021/05/31 10:31:01;;;;;;;24.10;22.60;;;;;;;;;;5017977;28;20431;-90
2021/05/31 10:33:28;;;;;;;23.93;22.43;;;;;;;;;;5017857;28;20411;-90
2021/05/31 10:36:00;;;;;;;23.40;22.00;;;;;;;;;;5017741;28;20546;-86
2021/05/31 10:38:30;;;;;;;24.57;23.07;;;;;;;;;;5017397;28;20903;-86
2021/05/31 10:40:57;;;;;;;24.07;22.57;;;;;;;;;;5007240;28;20443;-88
2021/05/31 10:43:25;;;;;;;24.60;23.00;;;;;;;;;;4999408;28;20421;-83
2021/05/31 10:46:02;;;;;;;24.70;23.10;;;;;;;;;;4998965;28;20421;-84
2021/05/31 10:48:31;;;;;;;23.60;22.30;;;;;;;;;;4997789;28;20627;-86
2021/05/31 10:50:59;;;;;;;24.60;23.17;;;;;;;;;;4997799;28;20580;-85
2021/05/31 10:53:30;;;;;;;24.37;22.87;;;;;;;;;;4998023;28;20499;-87
2021/05/31 10:55:58;;;;;;;23.87;22.43;;;;;;;;;;4998493;28;20757;-87
2021/05/31 10:58:27;;;;;;;22.90;21.40;;;;;;;;;;4997360;28;20493;-84
2021/05/31 11:00:55;;;;;;;23.27;21.83;;;;;;;;;;4997510;28;20420;-86
2021/05/31 11:03:23;;;;;;;23.37;21.80;;;;;;;;;;4997600;28;20442;-88
2021/05/31 11:05:51;;;;;;;23.13;21.83;;;;;;;;;;4997197;28;20441;-86
2021/05/31 11:08:25;;;;;;;24.10;22.80;;;;;;;;;;4997407;28;20953;-85
2021/05/31 11:10:55;;;;;;;24.40;23.00;;;;;;;;;;4997438;28;20454;-89
2021/05/31 11:13:22;;;;;;;24.07;22.67;;;;;;;;;;4997624;28;20430;-90
2021/05/31 11:16:00;;;;;;;24.80;23.20;;;;;;;;;;4997529;28;20413;-91
2021/05/31 11:18:32;;;;;;;23.73;22.10;;;;;;;;;;4980262;28;20443;-90
2021/05/31 11:21:01;;;;;;;24.00;22.50;;;;;;;;;;4997143;28;20443;-89
2021/05/31 11:23:29;;;;;;;22.93;21.63;;;;;;;;;;4997336;28;20409;-93
2021/05/31 11:25:57;;;;;;;24.40;22.87;;;;;;;;;;4997582;28;20944;-93
2021/05/31 11:28:24;;;;;;;23.20;21.80;;;;;;;;;;4996965;28;20455;-93
2021/05/31 11:30:51;;;;;;;24.07;22.57;;;;;;;;;;4997346;28;20786;-92
2021/05/31 11:33:18;;;;;;;23.67;22.17;;;;;;;;;;4997253;28;20810;-94
2021/05/31 11:35:46;;;;;;;23.93;22.27;;;;;;;;;;4997398;28;20436;-93
2021/05/31 11:38:17;;;;;;;22.80;21.50;;;;;;;;;;4996898;28;20900;-93
2021/05/31 11:40:44;;;;;;;23.53;22.13;;;;;;;;;;4996866;28;20423;-93
2021/05/31 11:43:13;;;;;;;23.30;21.50;;;;;;;;;;4997109;28;20407;-93
2021/05/31 11:45:40;;;;;;;22.43;21.13;;;;;;;;;;4996784;28;20421;-93
2021/05/31 11:48:09;;;;;;;22.47;20.97;;;;;;;;;;4997070;28;20946;-94
2021/05/31 11:50:40;;;;;;;22.37;21.07;;;;;;;;;;4996551;28;20987;-94
2021/05/31 11:53:07;;;;;;;23.10;21.80;;;;;;;;;;4997068;28;20467;-91
2021/05/31 11:55:35;;;;;;;23.00;21.70;;;;;;;;;;4996676;28;20435;-91
2021/05/31 11:58:03;;;;;;;22.63;21.33;;;;;;;;;;4996774;28;20419;-92
2021/05/31 12:00:32;;;;;;;22.07;20.87;;;;;;;;;;4996414;28;20542;-91
2021/05/31 12:02:59;;;;;;;22.70;21.40;;;;;;;;;;4996571;28;20426;-92
2021/05/31 12:05:30;;;;;;;21.83;20.53;;;;;;;;;;4996701;28;20443;-91
2021/05/31 12:08:01;;;;;;;23.37;21.97;;;;;;;;;;4979021;28;21003;-90
2021/05/31 12:10:28;;;;;;;22.70;21.30;;;;;;;;;;4996482;28;20518;-91
2021/05/31 12:12:57;;;;;;;22.20;20.90;;;;;;;;;;4996727;28;20445;-91
2021/05/31 12:15:24;;;;;;;23.70;22.20;;;;;;;;;;4996239;28;20444;-91
2021/05/31 12:17:53;;;;;;;23.23;21.93;;;;;;;;;;4997077;28;20570;-90
2021/05/31 12:20:23;;;;;;;23.70;22.10;;;;;;;;;;4996077;28;20505;-90
2021/05/31 12:22:50;;;;;;;24.00;22.60;;;;;;;;;;4996278;28;20413;-92
2021/05/31 12:25:17;;;;;;;23.07;21.57;;;;;;;;;;4995962;28;20426;-91
2021/05/31 12:27:44;;;;;;;23.27;21.77;;;;;;;;;;4995751;28;20965;-92
2021/05/31 12:30:15;;;;;;;22.57;21.33;;;;;;;;;;4979372;28;20444;-91
2021/05/31 12:32:43;;;;;;;23.13;21.83;;;;;;;;;;4978648;28;20489;-89
2021/05/31 12:35:12;;;;;;;23.33;22.03;;;;;;;;;;4995826;28;20443;-91
2021/05/31 12:37:41;;;;;;;24.13;22.23;;;;;;;;;;4979033;28;20422;-91
2021/05/31 12:40:09;;;;;;;23.30;21.90;;;;;;;;;;4995525;28;20920;-92
2021/05/31 12:42:36;;;;;;;22.70;21.30;;;;;;;;;;4995912;28;20414;-91
2021/05/31 12:45:05;;;;;;;22.90;21.60;;;;;;;;;;4996088;28;20398;-92
2021/05/31 12:47:35;;;;;;;22.73;21.43;;;;;;;;;;4995741;28;20453;-92
2021/05/31 12:50:03;;;;;;;23.30;22.00;;;;;;;;;;4995405;28;20492;-91
2021/05/31 12:52:31;;;;;;;22.97;21.67;;;;;;;;;;5004273;28;20912;-91
2021/05/31 12:55:00;;;;;;;23.33;22.03;;;;;;;;;;5014716;28;20470;-92
2021/05/31 12:57:32;;;;;;;22.80;21.50;;;;;;;;;;5015251;28;20487;-92
2021/05/31 12:59:59;;;;;;;23.87;22.13;;;;;;;;;;5015187;28;20439;-92
2021/05/31 13:02:28;;;;;;;23.60;22.30;;;;;;;;;;5015001;28;20917;-93
2021/05/31 13:05:04;;;;;;;22.47;21.27;;;;;;;;;;5015475;28;20446;-92
2021/05/31 13:07:35;;;;;;;22.77;21.37;;;;;;;;;;5014963;28;20573;-92
2021/05/31 13:10:03;;;;;;;22.80;21.47;;;;;;;;;;5014671;28;20806;-93
2021/05/31 13:12:31;;;;;;;23.90;22.30;;;;;;;;;;5014734;28;20414;-91
2021/05/31 13:15:00;;;;;;;24.40;22.93;;;;;;;;;;5014823;28;20447;-90
2021/05/31 13:17:29;;;;;;;23.70;22.20;;;;;;;;;;5014860;28;20450;-91
2021/05/31 13:20:08;;;;;;;23.70;22.30;;;;;;;;;;5014981;28;20491;-92
2021/05/31 13:22:35;;;;;;;24.07;22.73;;;;;;;;;;5014655;28;20413;-91
2021/05/31 13:25:02;;;;;;;23.20;21.80;;;;;;;;;;5015760;28;20443;-91
2021/05/31 13:27:33;;;;;;;23.37;21.87;;;;;;;;;;5015004;28;20818;-91
2021/05/31 13:30:00;;;;;;;23.30;21.80;;;;;;;;;;5013917;28;20519;-91
2021/05/31 13:32:28;;;;;;;22.90;21.60;;;;;;;;;;5014252;28;20429;-88
2021/05/31 13:35:01;;;;;;;22.70;21.30;;;;;;;;;;5014544;28;20463;-88
2021/05/31 13:37:30;;;;;;;23.00;21.70;;;;;;;;;;5014269;28;20464;-88
2021/05/31 13:39:58;;;;;;;21.90;20.70;;;;;;;;;;5014392;28;20451;-87
2021/05/31 13:42:28;;;;;;;23.27;21.97;;;;;;;;;;5014247;28;20440;-86
2021/05/31 13:45:03;;;;;;;23.37;21.97;;;;;;;;;;5014241;28;20909;-90
2021/05/31 13:47:30;;;;;;;23.23;21.93;;;;;;;;;;5014616;28;20560;-91
2021/05/31 13:49:57;;;;;;;23.40;22.10;;;;;;;;;;5013934;28;20483;-90
2021/05/31 13:52:23;;;;;;;23.40;22.10;;;;;;;;;;5014580;28;20502;-91
2021/05/31 13:54:52;;;;;;;24.53;22.93;;;;;;;;;;5014511;28;20462;-90
2021/05/31 13:57:24;;;;;;;24.20;22.80;;;;;;;;;;5014166;28;20450;-91
2021/05/31 13:59:51;;;;;;;24.20;22.80;;;;;;;;;;5014252;28;20422;-92
2021/05/31 14:02:20;;;;;;;24.00;22.60;;;;;;;;;;5014352;28;20428;-91
2021/05/31 14:04:47;;;;;;;23.83;22.50;;;;;;;;;;4998190;28;20455;-90
2021/05/31 14:07:14;;;;;;;24.23;22.87;;;;;;;;;;5014092;28;20486;-90
2021/05/31 14:09:41;;;;;;;23.70;22.30;;;;;;;;;;5014447;28;20415;-90
2021/05/31 14:12:10;;;;;;;24.13;22.73;;;;;;;;;;4996923;28;20444;-88
2021/05/31 14:14:37;;;;;;;23.53;22.13;;;;;;;;;;5014397;28;20613;-88
2021/05/31 14:17:04;;;;;;;24.03;22.63;;;;;;;;;;5014299;28;20439;-87
2021/05/31 14:19:31;;;;;;;23.67;22.37;;;;;;;;;;5014715;28;20487;-89
2021/05/31 14:21:58;;;;;;;23.50;22.10;;;;;;;;;;5014565;28;20436;-89
2021/05/31 14:24:27;;;;;;;22.83;21.53;;;;;;;;;;5013990;28;20438;-88
2021/05/31 14:26:54;;;;;;;23.10;21.50;;;;;;;;;;5013783;28;20459;-90